sensor_id;sensor_type;location;lat;lon;timestamp;P1;durP1;ratioP1;P2;durP2;ratioP2
65370;SDS011;58485;59.934;30.352;2022-07-10T00:00:18;74.18;;;32.15;;
65370;SDS011;58485;59.934;30.352;2022-07-10T00:01:12;73.20;;;29.85;;
65370;SDS011;58485;59.934;30.352;2022-07-10T00:02:03;78.43;;;30.50;;
65370;SDS011;58485;59.934;30.352;2022-07-10T00:02:56;76.38;;;31.98;;
65370;SDS011;58485;59.934;30.352;2022-07-10T00:03:50;77.38;;;34.00;;
65370;SDS011;58485;59.934;30.352;2022-07-10T00:04:44;80.93;;;34.70;;
65370;SDS011;58485;59.934;30.352;2022-07-10T00:05:36;77.32;;;33.58;;
65370;SDS011;58485;59.934;30.352;2022-07-10T00:06:28;77.68;;;32.28;;
65370;SDS011;58485;59.934;30.352;2022-07-10T00:07:20;81.63;;;33.28;;
65370;SDS011;58485;59.934;30.352;2022-07-10T00:08:12;69.82;;;31.27;;
65370;SDS011;58485;59.934;30.352;2022-07-10T00:09:04;75.95;;;32.92;;
65370;SDS011;58485;59.934;30.352;2022-07-10T00:09:56;78.32;;;33.35;;
65370;SDS011;58485;59.934;30.352;2022-07-10T00:10:48;79.82;;;32.88;;
65370;SDS011;58485;59.934;30.352;2022-07-10T00:11:41;90.65;;;35.95;;
65370;SDS011;58485;59.934;30.352;2022-07-10T00:12:33;70.70;;;32.42;;
65370;SDS011;58485;59.934;30.352;2022-07-10T00:13:24;83.28;;;34.38;;
65370;SDS011;58485;59.934;30.352;2022-07-10T00:14:16;82.32;;;33.95;;
65370;SDS011;58485;59.934;30.352;2022-07-10T00:15:08;93.38;;;34.22;;
65370;SDS011;58485;59.934;30.352;2022-07-10T00:16:02;86.63;;;34.55;;
65370;SDS011;58485;59.934;30.352;2022-07-10T00:16:54;81.57;;;32.38;;
65370;SDS011;58485;59.934;30.352;2022-07-10T00:17:46;73.18;;;31.75;;
65370;SDS011;58485;59.934;30.352;2022-07-10T00:18:37;74.75;;;33.00;;
65370;SDS011;58485;59.934;30.352;2022-07-10T00:19:31;69.68;;;30.67;;
65370;SDS011;58485;59.934;30.352;2022-07-10T00:20:23;74.10;;;31.67;;
65370;SDS011;58485;59.934;30.352;2022-07-10T00:21:15;73.75;;;32.70;;
65370;SDS011;58485;59.934;30.352;2022-07-10T00:22:07;76.70;;;32.42;;
65370;SDS011;58485;59.934;30.352;2022-07-10T00:23:00;77.22;;;32.50;;
65370;SDS011;58485;59.934;30.352;2022-07-10T00:23:51;62.60;;;31.17;;
65370;SDS011;58485;59.934;30.352;2022-07-10T00:24:45;73.80;;;32.88;;
65370;SDS011;58485;59.934;30.352;2022-07-10T00:25:36;75.07;;;32.53;;
65370;SDS011;58485;59.934;30.352;2022-07-10T00:26:29;71.80;;;31.10;;
65370;SDS011;58485;59.934;30.352;2022-07-10T00:27:20;79.13;;;32.65;;
65370;SDS011;58485;59.934;30.352;2022-07-10T00:28:13;71.00;;;32.38;;
65370;SDS011;58485;59.934;30.352;2022-07-10T00:29:04;85.30;;;31.02;;
65370;SDS011;58485;59.934;30.352;2022-07-10T00:29:57;75.88;;;32.08;;
65370;SDS011;58485;59.934;30.352;2022-07-10T00:30:48;73.07;;;32.05;;
65370;SDS011;58485;59.934;30.352;2022-07-10T00:31:40;65.85;;;30.20;;
65370;SDS011;58485;59.934;30.352;2022-07-10T00:32:31;73.60;;;31.23;;
65370;SDS011;58485;59.934;30.352;2022-07-10T00:33:24;66.18;;;29.10;;
65370;SDS011;58485;59.934;30.352;2022-07-10T00:34:15;73.70;;;28.77;;
65370;SDS011;58485;59.934;30.352;2022-07-10T00:35:09;66.78;;;29.25;;
65370;SDS011;58485;59.934;30.352;2022-07-10T00:36:00;71.57;;;29.38;;
65370;SDS011;58485;59.934;30.352;2022-07-10T00:36:52;69.70;;;28.05;;
65370;SDS011;58485;59.934;30.352;2022-07-10T00:37:44;64.20;;;28.15;;
65370;SDS011;58485;59.934;30.352;2022-07-10T00:38:36;68.35;;;28.95;;
65370;SDS011;58485;59.934;30.352;2022-07-10T00:39:27;67.45;;;30.20;;
65370;SDS011;58485;59.934;30.352;2022-07-10T00:40:19;67.43;;;29.08;;
65370;SDS011;58485;59.934;30.352;2022-07-10T00:41:11;63.10;;;28.02;;
65370;SDS011;58485;59.934;30.352;2022-07-10T00:42:05;64.03;;;26.65;;
65370;SDS011;58485;59.934;30.352;2022-07-10T00:42:58;57.47;;;26.98;;
65370;SDS011;58485;59.934;30.352;2022-07-10T00:43:50;59.58;;;27.10;;
65370;SDS011;58485;59.934;30.352;2022-07-10T00:44:43;59.63;;;26.70;;
65370;SDS011;58485;59.934;30.352;2022-07-10T00:45:35;62.42;;;28.05;;
65370;SDS011;58485;59.934;30.352;2022-07-10T00:46:27;54.78;;;26.60;;
65370;SDS011;58485;59.934;30.352;2022-07-10T00:47:21;60.63;;;25.95;;
65370;SDS011;58485;59.934;30.352;2022-07-10T00:48:12;58.78;;;26.45;;
65370;SDS011;58485;59.934;30.352;2022-07-10T00:49:04;56.45;;;24.77;;
65370;SDS011;58485;59.934;30.352;2022-07-10T00:49:55;52.50;;;24.95;;
65370;SDS011;58485;59.934;30.352;2022-07-10T00:50:49;46.20;;;25.23;;
65370;SDS011;58485;59.934;30.352;2022-07-10T00:51:40;48.63;;;25.38;;
65370;SDS011;58485;59.934;30.352;2022-07-10T00:52:33;55.10;;;25.65;;
65370;SDS011;58485;59.934;30.352;2022-07-10T00:53:28;61.35;;;26.02;;
65370;SDS011;58485;59.934;30.352;2022-07-10T00:54:21;50.50;;;24.63;;
65370;SDS011;58485;59.934;30.352;2022-07-10T00:55:12;57.85;;;24.70;;
65370;SDS011;58485;59.934;30.352;2022-07-10T00:56:06;51.88;;;22.77;;
65370;SDS011;58485;59.934;30.352;2022-07-10T00:56:57;54.30;;;24.80;;
65370;SDS011;58485;59.934;30.352;2022-07-10T00:57:51;52.03;;;24.13;;
65370;SDS011;58485;59.934;30.352;2022-07-10T00:58:42;47.10;;;23.35;;
65370;SDS011;58485;59.934;30.352;2022-07-10T00:59:35;51.08;;;24.42;;
65370;SDS011;58485;59.934;30.352;2022-07-10T01:00:26;47.40;;;24.13;;
65370;SDS011;58485;59.934;30.352;2022-07-10T01:01:20;48.75;;;23.98;;
65370;SDS011;58485;59.934;30.352;2022-07-10T01:02:13;47.53;;;23.50;;
65370;SDS011;58485;59.934;30.352;2022-07-10T01:03:06;51.35;;;23.90;;
65370;SDS011;58485;59.934;30.352;2022-07-10T01:03:57;49.40;;;23.67;;
65370;SDS011;58485;59.934;30.352;2022-07-10T01:04:49;46.35;;;22.30;;
65370;SDS011;58485;59.934;30.352;2022-07-10T01:05:42;41.22;;;22.08;;
65370;SDS011;58485;59.934;30.352;2022-07-10T01:06:35;48.15;;;22.98;;
65370;SDS011;58485;59.934;30.352;2022-07-10T01:07:27;38.05;;;21.30;;
65370;SDS011;58485;59.934;30.352;2022-07-10T01:08:19;45.30;;;21.52;;
65370;SDS011;58485;59.934;30.352;2022-07-10T01:09:10;47.25;;;21.40;;
65370;SDS011;58485;59.934;30.352;2022-07-10T01:10:03;34.15;;;19.67;;
65370;SDS011;58485;59.934;30.352;2022-07-10T01:10:55;42.85;;;21.35;;
65370;SDS011;58485;59.934;30.352;2022-07-10T01:11:48;33.47;;;19.75;;
65370;SDS011;58485;59.934;30.352;2022-07-10T01:12:40;38.55;;;21.13;;
65370;SDS011;58485;59.934;30.352;2022-07-10T01:13:33;35.28;;;19.85;;
65370;SDS011;58485;59.934;30.352;2022-07-10T01:14:25;42.65;;;20.35;;
65370;SDS011;58485;59.934;30.352;2022-07-10T01:15:17;46.45;;;21.08;;
65370;SDS011;58485;59.934;30.352;2022-07-10T01:16:09;34.85;;;19.60;;
65370;SDS011;58485;59.934;30.352;2022-07-10T01:17:02;39.53;;;18.83;;
65370;SDS011;58485;59.934;30.352;2022-07-10T01:17:55;33.30;;;18.55;;
65370;SDS011;58485;59.934;30.352;2022-07-10T01:18:47;41.45;;;20.13;;
65370;SDS011;58485;59.934;30.352;2022-07-10T01:19:38;35.80;;;18.90;;
65370;SDS011;58485;59.934;30.352;2022-07-10T01:20:31;26.50;;;18.05;;
65370;SDS011;58485;59.934;30.352;2022-07-10T01:21:24;26.58;;;16.20;;
65370;SDS011;58485;59.934;30.352;2022-07-10T01:22:17;27.95;;;17.60;;
65370;SDS011;58485;59.934;30.352;2022-07-10T01:23:08;34.13;;;17.38;;
65370;SDS011;58485;59.934;30.352;2022-07-10T01:24:03;38.72;;;16.50;;
65370;SDS011;58485;59.934;30.352;2022-07-10T01:24:56;27.15;;;17.17;;
65370;SDS011;58485;59.934;30.352;2022-07-10T01:25:48;40.83;;;17.55;;
65370;SDS011;58485;59.934;30.352;2022-07-10T01:26:40;28.85;;;16.33;;
65370;SDS011;58485;59.934;30.352;2022-07-10T01:27:33;37.85;;;16.73;;
65370;SDS011;58485;59.934;30.352;2022-07-10T01:28:24;32.20;;;15.60;;
65370;SDS011;58485;59.934;30.352;2022-07-10T01:29:18;25.80;;;15.88;;
65370;SDS011;58485;59.934;30.352;2022-07-10T01:30:12;29.20;;;15.88;;
65370;SDS011;58485;59.934;30.352;2022-07-10T01:31:04;31.20;;;17.08;;
65370;SDS011;58485;59.934;30.352;2022-07-10T01:31:55;33.92;;;15.65;;
65370;SDS011;58485;59.934;30.352;2022-07-10T01:32:50;28.75;;;15.40;;
65370;SDS011;58485;59.934;30.352;2022-07-10T01:33:42;22.27;;;14.68;;
65370;SDS011;58485;59.934;30.352;2022-07-10T01:34:35;28.25;;;15.15;;
65370;SDS011;58485;59.934;30.352;2022-07-10T01:35:26;21.95;;;14.05;;
65370;SDS011;58485;59.934;30.352;2022-07-10T01:36:18;30.45;;;14.65;;
65370;SDS011;58485;59.934;30.352;2022-07-10T01:37:11;25.67;;;14.15;;
65370;SDS011;58485;59.934;30.352;2022-07-10T01:38:04;21.40;;;13.63;;
65370;SDS011;58485;59.934;30.352;2022-07-10T01:38:55;24.48;;;14.00;;
65370;SDS011;58485;59.934;30.352;2022-07-10T01:39:48;28.02;;;13.80;;
65370;SDS011;58485;59.934;30.352;2022-07-10T01:40:39;23.00;;;13.13;;
65370;SDS011;58485;59.934;30.352;2022-07-10T01:41:31;20.77;;;13.07;;
65370;SDS011;58485;59.934;30.352;2022-07-10T01:42:23;22.70;;;13.35;;
65370;SDS011;58485;59.934;30.352;2022-07-10T01:43:15;23.38;;;13.52;;
65370;SDS011;58485;59.934;30.352;2022-07-10T01:44:06;18.95;;;12.75;;
65370;SDS011;58485;59.934;30.352;2022-07-10T01:44:59;16.58;;;12.50;;
65370;SDS011;58485;59.934;30.352;2022-07-10T01:45:50;25.92;;;13.00;;
65370;SDS011;58485;59.934;30.352;2022-07-10T01:46:43;25.00;;;13.18;;
65370;SDS011;58485;59.934;30.352;2022-07-10T01:47:36;28.58;;;13.15;;
65370;SDS011;58485;59.934;30.352;2022-07-10T01:48:28;18.52;;;12.80;;
65370;SDS011;58485;59.934;30.352;2022-07-10T01:49:20;20.15;;;12.18;;
65370;SDS011;58485;59.934;30.352;2022-07-10T01:50:12;16.95;;;11.82;;
65370;SDS011;58485;59.934;30.352;2022-07-10T01:51:03;20.90;;;12.90;;
65370;SDS011;58485;59.934;30.352;2022-07-10T01:51:56;17.08;;;11.77;;
65370;SDS011;58485;59.934;30.352;2022-07-10T01:52:48;15.55;;;11.13;;
65370;SDS011;58485;59.934;30.352;2022-07-10T01:53:41;13.85;;;10.50;;
65370;SDS011;58485;59.934;30.352;2022-07-10T01:54:32;13.48;;;10.48;;
65370;SDS011;58485;59.934;30.352;2022-07-10T01:55:24;14.02;;;10.90;;
65370;SDS011;58485;59.934;30.352;2022-07-10T01:56:16;18.80;;;10.63;;
65370;SDS011;58485;59.934;30.352;2022-07-10T01:57:08;16.48;;;11.30;;
65370;SDS011;58485;59.934;30.352;2022-07-10T01:57:59;20.58;;;11.05;;
65370;SDS011;58485;59.934;30.352;2022-07-10T01:58:52;14.63;;;10.00;;
65370;SDS011;58485;59.934;30.352;2022-07-10T01:59:43;18.13;;;10.57;;
65370;SDS011;58485;59.934;30.352;2022-07-10T02:00:35;12.73;;;9.90;;
65370;SDS011;58485;59.934;30.352;2022-07-10T02:01:27;20.85;;;10.48;;
65370;SDS011;58485;59.934;30.352;2022-07-10T02:02:19;18.15;;;10.82;;
65370;SDS011;58485;59.934;30.352;2022-07-10T02:03:11;21.80;;;9.90;;
65370;SDS011;58485;59.934;30.352;2022-07-10T02:04:21;11.82;;;9.02;;
65370;SDS011;58485;59.934;30.352;2022-07-10T02:05:30;11.05;;;9.85;;
65370;SDS011;58485;59.934;30.352;2022-07-10T02:06:22;11.05;;;9.75;;
65370;SDS011;58485;59.934;30.352;2022-07-10T02:07:14;11.55;;;9.88;;
65370;SDS011;58485;59.934;30.352;2022-07-10T02:08:09;13.65;;;9.23;;
65370;SDS011;58485;59.934;30.352;2022-07-10T02:09:01;10.05;;;8.80;;
65370;SDS011;58485;59.934;30.352;2022-07-10T02:09:52;13.68;;;9.40;;
65370;SDS011;58485;59.934;30.352;2022-07-10T02:10:44;16.52;;;8.98;;
65370;SDS011;58485;59.934;30.352;2022-07-10T02:11:35;13.98;;;9.68;;
65370;SDS011;58485;59.934;30.352;2022-07-10T02:12:28;9.85;;;8.57;;
65370;SDS011;58485;59.934;30.352;2022-07-10T02:13:19;9.85;;;8.80;;
65370;SDS011;58485;59.934;30.352;2022-07-10T02:14:31;12.30;;;9.27;;
65370;SDS011;58485;59.934;30.352;2022-07-10T02:15:22;11.63;;;8.65;;
65370;SDS011;58485;59.934;30.352;2022-07-10T02:16:15;11.07;;;9.45;;
65370;SDS011;58485;59.934;30.352;2022-07-10T02:17:06;9.23;;;8.35;;
65370;SDS011;58485;59.934;30.352;2022-07-10T02:17:59;14.15;;;8.75;;
65370;SDS011;58485;59.934;30.352;2022-07-10T02:18:51;10.60;;;8.88;;
65370;SDS011;58485;59.934;30.352;2022-07-10T02:19:43;11.00;;;8.70;;
65370;SDS011;58485;59.934;30.352;2022-07-10T02:20:34;9.50;;;8.10;;
65370;SDS011;58485;59.934;30.352;2022-07-10T02:21:26;12.27;;;8.70;;
65370;SDS011;58485;59.934;30.352;2022-07-10T02:22:17;10.02;;;9.10;;
65370;SDS011;58485;59.934;30.352;2022-07-10T02:23:11;15.43;;;9.02;;
65370;SDS011;58485;59.934;30.352;2022-07-10T02:24:03;13.98;;;8.25;;
65370;SDS011;58485;59.934;30.352;2022-07-10T02:24:55;9.15;;;8.25;;
65370;SDS011;58485;59.934;30.352;2022-07-10T02:25:46;9.05;;;7.93;;
65370;SDS011;58485;59.934;30.352;2022-07-10T02:26:38;8.70;;;7.80;;
65370;SDS011;58485;59.934;30.352;2022-07-10T02:27:30;7.78;;;7.00;;
65370;SDS011;58485;59.934;30.352;2022-07-10T02:28:22;9.25;;;8.20;;
65370;SDS011;58485;59.934;30.352;2022-07-10T02:29:13;11.90;;;7.97;;
65370;SDS011;58485;59.934;30.352;2022-07-10T02:30:06;8.93;;;7.72;;
65370;SDS011;58485;59.934;30.352;2022-07-10T02:30:58;9.60;;;7.50;;
65370;SDS011;58485;59.934;30.352;2022-07-10T02:31:50;14.15;;;7.70;;
65370;SDS011;58485;59.934;30.352;2022-07-10T02:32:42;9.70;;;7.60;;
65370;SDS011;58485;59.934;30.352;2022-07-10T02:33:34;9.55;;;7.93;;
65370;SDS011;58485;59.934;30.352;2022-07-10T02:34:27;11.68;;;7.35;;
65370;SDS011;58485;59.934;30.352;2022-07-10T02:35:19;9.40;;;7.85;;
65370;SDS011;58485;59.934;30.352;2022-07-10T02:36:11;8.70;;;6.80;;
65370;SDS011;58485;59.934;30.352;2022-07-10T02:37:03;8.75;;;7.13;;
65370;SDS011;58485;59.934;30.352;2022-07-10T02:37:55;11.95;;;6.88;;
65370;SDS011;58485;59.934;30.352;2022-07-10T02:38:48;9.27;;;6.93;;
65370;SDS011;58485;59.934;30.352;2022-07-10T02:39:39;8.38;;;6.28;;
65370;SDS011;58485;59.934;30.352;2022-07-10T02:40:32;6.80;;;6.25;;
65370;SDS011;58485;59.934;30.352;2022-07-10T02:41:23;9.07;;;7.28;;
65370;SDS011;58485;59.934;30.352;2022-07-10T02:42:15;7.95;;;7.18;;
65370;SDS011;58485;59.934;30.352;2022-07-10T02:43:07;8.30;;;7.50;;
65370;SDS011;58485;59.934;30.352;2022-07-10T02:43:59;7.30;;;6.60;;
65370;SDS011;58485;59.934;30.352;2022-07-10T02:44:50;8.23;;;7.47;;
65370;SDS011;58485;59.934;30.352;2022-07-10T02:45:42;9.25;;;6.90;;
65370;SDS011;58485;59.934;30.352;2022-07-10T02:46:33;7.25;;;6.55;;
65370;SDS011;58485;59.934;30.352;2022-07-10T02:47:26;7.85;;;7.07;;
65370;SDS011;58485;59.934;30.352;2022-07-10T02:48:17;8.80;;;6.20;;
65370;SDS011;58485;59.934;30.352;2022-07-10T02:49:09;6.25;;;5.65;;
65370;SDS011;58485;59.934;30.352;2022-07-10T02:50:00;6.35;;;5.75;;
65370;SDS011;58485;59.934;30.352;2022-07-10T02:50:53;7.00;;;5.40;;
65370;SDS011;58485;59.934;30.352;2022-07-10T02:51:44;7.13;;;6.45;;
65370;SDS011;58485;59.934;30.352;2022-07-10T02:52:36;7.13;;;6.03;;
65370;SDS011;58485;59.934;30.352;2022-07-10T02:53:27;7.40;;;6.80;;
65370;SDS011;58485;59.934;30.352;2022-07-10T02:54:22;8.07;;;6.35;;
65370;SDS011;58485;59.934;30.352;2022-07-10T02:55:13;6.78;;;6.05;;
65370;SDS011;58485;59.934;30.352;2022-07-10T02:56:06;6.28;;;5.63;;
65370;SDS011;58485;59.934;30.352;2022-07-10T02:56:57;7.20;;;5.82;;
65370;SDS011;58485;59.934;30.352;2022-07-10T02:57:50;7.30;;;6.57;;
65370;SDS011;58485;59.934;30.352;2022-07-10T02:58:41;7.10;;;6.47;;
65370;SDS011;58485;59.934;30.352;2022-07-10T02:59:33;7.07;;;6.18;;
65370;SDS011;58485;59.934;30.352;2022-07-10T03:00:29;6.13;;;5.63;;
65370;SDS011;58485;59.934;30.352;2022-07-10T03:01:28;6.20;;;5.60;;
65370;SDS011;58485;59.934;30.352;2022-07-10T03:02:20;8.73;;;5.80;;
65370;SDS011;58485;59.934;30.352;2022-07-10T03:03:12;6.43;;;5.82;;
65370;SDS011;58485;59.934;30.352;2022-07-10T03:04:03;6.20;;;5.60;;
65370;SDS011;58485;59.934;30.352;2022-07-10T03:04:55;5.55;;;5.05;;
65370;SDS011;58485;59.934;30.352;2022-07-10T03:05:46;9.57;;;5.63;;
65370;SDS011;58485;59.934;30.352;2022-07-10T03:06:39;7.20;;;5.93;;
65370;SDS011;58485;59.934;30.352;2022-07-10T03:07:30;6.60;;;5.95;;
65370;SDS011;58485;59.934;30.352;2022-07-10T03:08:22;6.28;;;5.68;;
65370;SDS011;58485;59.934;30.352;2022-07-10T03:09:13;5.85;;;5.22;;
65370;SDS011;58485;59.934;30.352;2022-07-10T03:10:08;5.30;;;4.88;;
65370;SDS011;58485;59.934;30.352;2022-07-10T03:11:00;5.72;;;5.22;;
65370;SDS011;58485;59.934;30.352;2022-07-10T03:11:53;5.50;;;5.00;;
65370;SDS011;58485;59.934;30.352;2022-07-10T03:12:44;6.35;;;5.13;;
65370;SDS011;58485;59.934;30.352;2022-07-10T03:13:36;6.38;;;4.78;;
65370;SDS011;58485;59.934;30.352;2022-07-10T03:14:28;6.47;;;4.97;;
65370;SDS011;58485;59.934;30.352;2022-07-10T03:15:20;5.75;;;5.15;;
65370;SDS011;58485;59.934;30.352;2022-07-10T03:16:11;8.00;;;4.75;;
65370;SDS011;58485;59.934;30.352;2022-07-10T03:17:04;5.43;;;5.00;;
65370;SDS011;58485;59.934;30.352;2022-07-10T03:17:55;5.53;;;5.00;;
65370;SDS011;58485;59.934;30.352;2022-07-10T03:18:47;5.70;;;5.20;;
65370;SDS011;58485;59.934;30.352;2022-07-10T03:19:38;5.68;;;5.07;;
65370;SDS011;58485;59.934;30.352;2022-07-10T03:20:31;7.50;;;5.20;;
65370;SDS011;58485;59.934;30.352;2022-07-10T03:21:22;5.30;;;4.90;;
65370;SDS011;58485;59.934;30.352;2022-07-10T03:22:14;7.60;;;4.75;;
65370;SDS011;58485;59.934;30.352;2022-07-10T03:23:05;4.75;;;4.45;;
65370;SDS011;58485;59.934;30.352;2022-07-10T03:23:58;6.32;;;5.82;;
65370;SDS011;58485;59.934;30.352;2022-07-10T03:24:49;5.28;;;4.82;;
65370;SDS011;58485;59.934;30.352;2022-07-10T03:25:42;5.43;;;5.03;;
65370;SDS011;58485;59.934;30.352;2022-07-10T03:26:34;4.85;;;4.45;;
65370;SDS011;58485;59.934;30.352;2022-07-10T03:27:26;4.93;;;4.07;;
65370;SDS011;58485;59.934;30.352;2022-07-10T03:28:17;5.80;;;4.72;;
65370;SDS011;58485;59.934;30.352;2022-07-10T03:29:10;5.57;;;4.82;;
65370;SDS011;58485;59.934;30.352;2022-07-10T03:30:01;4.95;;;4.55;;
65370;SDS011;58485;59.934;30.352;2022-07-10T03:30:54;5.63;;;5.03;;
65370;SDS011;58485;59.934;30.352;2022-07-10T03:31:46;6.40;;;5.10;;
65370;SDS011;58485;59.934;30.352;2022-07-10T03:32:38;4.95;;;4.47;;
65370;SDS011;58485;59.934;30.352;2022-07-10T03:33:29;5.43;;;4.95;;
65370;SDS011;58485;59.934;30.352;2022-07-10T03:34:21;4.70;;;4.30;;
65370;SDS011;58485;59.934;30.352;2022-07-10T03:35:13;10.80;;;5.25;;
65370;SDS011;58485;59.934;30.352;2022-07-10T03:36:05;4.18;;;3.80;;
65370;SDS011;58485;59.934;30.352;2022-07-10T03:36:58;5.15;;;4.75;;
65370;SDS011;58485;59.934;30.352;2022-07-10T03:37:49;4.97;;;4.60;;
65370;SDS011;58485;59.934;30.352;2022-07-10T03:38:41;4.57;;;3.80;;
65370;SDS011;58485;59.934;30.352;2022-07-10T03:39:34;6.50;;;4.78;;
65370;SDS011;58485;59.934;30.352;2022-07-10T03:40:27;4.13;;;3.83;;
65370;SDS011;58485;59.934;30.352;2022-07-10T03:41:19;6.75;;;3.95;;
65370;SDS011;58485;59.934;30.352;2022-07-10T03:42:12;4.22;;;3.92;;
65370;SDS011;58485;59.934;30.352;2022-07-10T03:43:03;4.43;;;4.07;;
65370;SDS011;58485;59.934;30.352;2022-07-10T03:43:55;4.70;;;4.30;;
65370;SDS011;58485;59.934;30.352;2022-07-10T03:44:47;4.60;;;4.20;;
65370;SDS011;58485;59.934;30.352;2022-07-10T03:45:39;4.25;;;3.95;;
65370;SDS011;58485;59.934;30.352;2022-07-10T03:46:30;4.15;;;3.83;;
65370;SDS011;58485;59.934;30.352;2022-07-10T03:47:22;8.85;;;4.25;;
65370;SDS011;58485;59.934;30.352;2022-07-10T03:48:13;5.28;;;4.40;;
65370;SDS011;58485;59.934;30.352;2022-07-10T03:49:06;5.05;;;4.65;;
65370;SDS011;58485;59.934;30.352;2022-07-10T03:49:57;4.63;;;4.28;;
65370;SDS011;58485;59.934;30.352;2022-07-10T03:50:58;4.32;;;3.95;;
65370;SDS011;58485;59.934;30.352;2022-07-10T03:51:59;3.97;;;3.67;;
65370;SDS011;58485;59.934;30.352;2022-07-10T03:52:52;4.88;;;4.43;;
65370;SDS011;58485;59.934;30.352;2022-07-10T03:53:43;4.03;;;3.72;;
65370;SDS011;58485;59.934;30.352;2022-07-10T03:54:35;5.03;;;4.63;;
65370;SDS011;58485;59.934;30.352;2022-07-10T03:55:26;4.55;;;3.97;;
65370;SDS011;58485;59.934;30.352;2022-07-10T03:56:20;4.07;;;3.78;;
65370;SDS011;58485;59.934;30.352;2022-07-10T03:57:30;4.40;;;4.10;;
65370;SDS011;58485;59.934;30.352;2022-07-10T03:58:51;4.15;;;3.85;;
65370;SDS011;58485;59.934;30.352;2022-07-10T03:59:43;5.47;;;4.20;;
65370;SDS011;58485;59.934;30.352;2022-07-10T04:00:35;4.60;;;4.25;;
65370;SDS011;58485;59.934;30.352;2022-07-10T04:01:28;3.83;;;3.53;;
65370;SDS011;58485;59.934;30.352;2022-07-10T04:02:21;3.97;;;3.67;;
65370;SDS011;58485;59.934;30.352;2022-07-10T04:03:12;4.43;;;3.92;;
65370;SDS011;58485;59.934;30.352;2022-07-10T04:04:04;4.63;;;4.22;;
65370;SDS011;58485;59.934;30.352;2022-07-10T04:04:55;4.22;;;3.92;;
65370;SDS011;58485;59.934;30.352;2022-07-10T04:05:47;4.57;;;4.28;;
65370;SDS011;58485;59.934;30.352;2022-07-10T04:06:39;3.83;;;3.53;;
65370;SDS011;58485;59.934;30.352;2022-07-10T04:07:31;9.50;;;3.67;;
65370;SDS011;58485;59.934;30.352;2022-07-10T04:08:22;6.68;;;4.07;;
65370;SDS011;58485;59.934;30.352;2022-07-10T04:09:14;3.75;;;3.45;;
65370;SDS011;58485;59.934;30.352;2022-07-10T04:10:07;4.50;;;4.10;;
65370;SDS011;58485;59.934;30.352;2022-07-10T04:11:01;4.30;;;3.67;;
65370;SDS011;58485;59.934;30.352;2022-07-10T04:11:53;4.68;;;4.00;;
65370;SDS011;58485;59.934;30.352;2022-07-10T04:12:45;4.65;;;4.22;;
65370;SDS011;58485;59.934;30.352;2022-07-10T04:13:38;4.25;;;3.90;;
65370;SDS011;58485;59.934;30.352;2022-07-10T04:14:30;7.15;;;3.58;;
65370;SDS011;58485;59.934;30.352;2022-07-10T04:15:21;7.05;;;4.07;;
65370;SDS011;58485;59.934;30.352;2022-07-10T04:16:14;4.13;;;3.60;;
65370;SDS011;58485;59.934;30.352;2022-07-10T04:17:05;4.72;;;3.58;;
65370;SDS011;58485;59.934;30.352;2022-07-10T04:17:59;3.88;;;3.58;;
65370;SDS011;58485;59.934;30.352;2022-07-10T04:18:50;5.45;;;3.65;;
65370;SDS011;58485;59.934;30.352;2022-07-10T04:19:42;3.72;;;3.45;;
65370;SDS011;58485;59.934;30.352;2022-07-10T04:20:33;3.55;;;3.25;;
65370;SDS011;58485;59.934;30.352;2022-07-10T04:21:25;3.47;;;3.28;;
65370;SDS011;58485;59.934;30.352;2022-07-10T04:22:17;3.95;;;3.65;;
65370;SDS011;58485;59.934;30.352;2022-07-10T04:23:09;9.65;;;3.45;;
65370;SDS011;58485;59.934;30.352;2022-07-10T04:24:00;3.72;;;3.42;;
65370;SDS011;58485;59.934;30.352;2022-07-10T04:24:52;3.80;;;3.50;;
65370;SDS011;58485;59.934;30.352;2022-07-10T04:25:44;3.40;;;3.10;;
65370;SDS011;58485;59.934;30.352;2022-07-10T04:26:36;4.70;;;4.20;;
65370;SDS011;58485;59.934;30.352;2022-07-10T04:27:28;4.88;;;2.97;;
65370;SDS011;58485;59.934;30.352;2022-07-10T04:28:21;7.13;;;3.60;;
65370;SDS011;58485;59.934;30.352;2022-07-10T04:29:12;6.43;;;3.33;;
65370;SDS011;58485;59.934;30.352;2022-07-10T04:30:05;4.05;;;3.75;;
65370;SDS011;58485;59.934;30.352;2022-07-10T04:30:57;3.58;;;3.38;;
65370;SDS011;58485;59.934;30.352;2022-07-10T04:31:50;4.15;;;3.45;;
65370;SDS011;58485;59.934;30.352;2022-07-10T04:32:41;6.68;;;3.40;;
65370;SDS011;58485;59.934;30.352;2022-07-10T04:33:33;4.15;;;3.53;;
65370;SDS011;58485;59.934;30.352;2022-07-10T04:34:24;3.20;;;3.00;;
65370;SDS011;58485;59.934;30.352;2022-07-10T04:35:17;8.73;;;3.70;;
65370;SDS011;58485;59.934;30.352;2022-07-10T04:36:08;4.63;;;3.95;;
65370;SDS011;58485;59.934;30.352;2022-07-10T04:37:00;3.80;;;3.50;;
65370;SDS011;58485;59.934;30.352;2022-07-10T04:37:51;4.32;;;4.03;;
65370;SDS011;58485;59.934;30.352;2022-07-10T04:38:43;3.55;;;3.25;;
65370;SDS011;58485;59.934;30.352;2022-07-10T04:39:35;3.75;;;3.45;;
65370;SDS011;58485;59.934;30.352;2022-07-10T04:40:28;3.80;;;3.53;;
65370;SDS011;58485;59.934;30.352;2022-07-10T04:41:19;3.88;;;3.58;;
65370;SDS011;58485;59.934;30.352;2022-07-10T04:42:11;3.38;;;3.17;;
65370;SDS011;58485;59.934;30.352;2022-07-10T04:43:04;3.80;;;3.50;;
65370;SDS011;58485;59.934;30.352;2022-07-10T04:43:56;3.92;;;3.63;;
65370;SDS011;58485;59.934;30.352;2022-07-10T04:44:47;3.97;;;3.65;;
65370;SDS011;58485;59.934;30.352;2022-07-10T04:45:39;3.42;;;3.22;;
65370;SDS011;58485;59.934;30.352;2022-07-10T04:46:31;3.17;;;2.88;;
65370;SDS011;58485;59.934;30.352;2022-07-10T04:47:23;4.32;;;3.30;;
65370;SDS011;58485;59.934;30.352;2022-07-10T04:48:14;3.90;;;3.28;;
65370;SDS011;58485;59.934;30.352;2022-07-10T04:49:06;3.80;;;3.50;;
65370;SDS011;58485;59.934;30.352;2022-07-10T04:49:57;3.33;;;3.13;;
65370;SDS011;58485;59.934;30.352;2022-07-10T04:50:50;3.60;;;3.30;;
65370;SDS011;58485;59.934;30.352;2022-07-10T04:51:41;3.33;;;3.03;;
65370;SDS011;58485;59.934;30.352;2022-07-10T04:52:33;3.72;;;3.50;;
65370;SDS011;58485;59.934;30.352;2022-07-10T04:53:24;3.38;;;3.08;;
65370;SDS011;58485;59.934;30.352;2022-07-10T04:54:16;3.60;;;3.30;;
65370;SDS011;58485;59.934;30.352;2022-07-10T04:55:08;3.40;;;3.10;;
65370;SDS011;58485;59.934;30.352;2022-07-10T04:56:00;3.60;;;2.90;;
65370;SDS011;58485;59.934;30.352;2022-07-10T04:56:52;6.10;;;2.78;;
65370;SDS011;58485;59.934;30.352;2022-07-10T04:57:44;3.15;;;2.95;;
65370;SDS011;58485;59.934;30.352;2022-07-10T04:58:37;3.95;;;3.33;;
65370;SDS011;58485;59.934;30.352;2022-07-10T04:59:29;3.33;;;3.10;;
65370;SDS011;58485;59.934;30.352;2022-07-10T05:00:21;3.33;;;3.13;;
65370;SDS011;58485;59.934;30.352;2022-07-10T05:01:13;3.00;;;2.80;;
65370;SDS011;58485;59.934;30.352;2022-07-10T05:02:04;4.43;;;3.30;;
65370;SDS011;58485;59.934;30.352;2022-07-10T05:02:58;2.75;;;2.60;;
65370;SDS011;58485;59.934;30.352;2022-07-10T05:03:49;2.92;;;2.72;;
65370;SDS011;58485;59.934;30.352;2022-07-10T05:04:41;4.18;;;3.78;;
65370;SDS011;58485;59.934;30.352;2022-07-10T05:05:33;3.45;;;3.15;;
65370;SDS011;58485;59.934;30.352;2022-07-10T05:06:25;3.55;;;3.10;;
65370;SDS011;58485;59.934;30.352;2022-07-10T05:07:16;3.10;;;2.90;;